METAR stanice u blizini

 

LYBE - Beograd / Surčin, Srbija
Ažurirano: 18/05/2024 08:00
Vedro
Vedro
 Pravac vetra J
Vetar: J 6 km/h
Temperatura: 17°C
Tačka rose: 14°C
Vlažnost: 83%
Pritisak: 1016 hPa
Pregled: Vedro
Vidljivost: greater than 10 km
2024/05/18 06:00 LYBE 180600Z 17003KT 120V210 CAVOK 17/14 Q1016 NOSIG
LYBT - Beograd / Batajnica, Srbija
Ažurirano: 18/05/2024 08:00
Vedro
Vedro
 Pravac vetra JJI
Vetar: JJI 6 km/h
Temperatura: 17°C
Tačka rose: 15°C
Vlažnost: 88%
Pritisak: 1016 hPa
Pregled: Vedro
Vidljivost: greater than 10 km
2024/05/18 06:00 LYBT 180600Z 16003KT 120V220 CAVOK 17/15 Q1016 NOSIG
LYVR - Vršac, Srbija
Ažurirano: 18/05/2024 08:00
Vedro
Vedro
 Pravac vetra JI
Vetar: JI 28 km/h
Temperatura: 18°C
Tačka rose: 11°C
Vlažnost: 64%
Pritisak: 1016 hPa
Pregled: Vedro
Vidljivost: greater than 10 km
2024/05/18 06:00 LYVR 180600Z AUTO 14015KT CAVOK 18/11 Q1016
 
LYKV - Lađevci, Srbija
Ažurirano: 18/05/2024 08:00
Vedro
Vedro
 Pravac vetra calm
Vetar: Tišina
Temperatura: 14°C
Tačka rose: 12°C
Vlažnost: 88%
Pritisak: 1017 hPa
Pregled: Vedro
Vidljivost: greater than 10 km
2024/05/18 06:00 LYKV 180600Z 00000KT CAVOK 14/12 Q1017 NOSIG
LYNI - Niš, Srbija
Ažurirano: 18/05/2024 08:00
Vedro
Vedro
 Pravac vetra calm
Vetar: Tišina
Temperatura: 16°C
Tačka rose: 13°C
Vlažnost: 83%
Pritisak: 1018 hPa
Pregled: Vedro
Vidljivost: greater than 10 km
2024/05/18 06:00 LYNI 180600Z 00000KT CAVOK 16/13 Q1018 NOSIG
BKPR - Priština, Srbija
Ažurirano: 18/05/2024 08:00
Few Clouds
Few Clouds
 Pravac vetra JI
Vetar: JI 6 km/h
Temperatura: 14°C
Tačka rose: 12°C
Vlažnost: 88%
Pritisak: 1018 hPa
Oblaci: Few Clouds
Vidljivost: 10 km
Cloud details: Few Clouds 1981 m
2024/05/18 06:00 BKPR 180600Z 14003KT 9999 FEW065 14/12 Q1018 NOSIG
 
LHPP - Pecs / Pogany, Hungary
Ažurirano: 18/05/2024 07:45
Vedro
Vedro
 Pravac vetra JJZ
Vetar: JJZ 6 km/h
Temperatura: 15°C
Tačka rose: 11°C
Vlažnost: 77%
Pritisak: 1015 hPa
Pregled: Vedro
Vidljivost: greater than 10 km
2024/05/18 05:45 LHPP 180545Z AUTO 21003KT 170V240 CAVOK 15/11 Q1015
LHUD - Szeged, Hungary
Ažurirano: 04/07/2019 01:45
NOT Current
Vedro
Vedro
 Pravac vetra S
Vetar: S 7 km/h
Temperatura: 18°C
Tačka rose: 13°C
Vlažnost: 73%
Pritisak: 1019 hPa
Pregled: Vedro
Vidljivost: greater than 10 km
2019/07/03 23:45 LHUD 032345Z 35004KT CAVOK 18/13 Q1019
LRTR - Timisoara, Romania
Ažurirano: 18/05/2024 08:00
Few Clouds
Few Clouds
 Pravac vetra JJI
Vetar: JJI 13 km/h
Temperatura: 16°C
Tačka rose: 13°C
Vlažnost: 83%
Pritisak: 1016 hPa
Oblaci: Few Clouds
Vidljivost: 10 km
Cloud details: Few Clouds 1463 m
2024/05/18 06:00 LRTR 180600Z 16007KT 9999 FEW048 16/13 Q1016
 
LRCV - Craiova, Romania
Ažurirano: 18/05/2024 08:00
Oblačno
Oblačno
 Pravac vetra SI
Vetar: SI 13 km/h
Temperatura: 13°C
Tačka rose: 8°C
Vlažnost: 72%
Pritisak: 1018 hPa
Oblaci: Oblačno
Vidljivost: 10 km
Cloud details: Oblačno 1036 m
2024/05/18 06:00 LRCV 180600Z 05007KT 9999 OVC034 13/08 Q1018
LBSF - Sofia, Bulgaria
Ažurirano: 18/05/2024 08:00
Few Clouds
Few Clouds
 Pravac vetra JI
Vetar: JI 6 km/h
Temperatura: 14°C
Tačka rose: 11°C
Vlažnost: 82%
Pritisak: 1019 hPa
Oblaci: Few Clouds
Vidljivost: 10 km
Cloud details: Few Clouds 762 m
2024/05/18 06:00 LBSF 180600Z 13003KT 080V200 9999 FEW025 14/11 Q1019 NOSIG
LWSK - Skoplje, Makedonija
Ažurirano: 18/05/2024 08:20
Few Clouds
Few Clouds
 Pravac vetra varies
Vetar: varies 2 km/h
Temperatura: 17°C
Tačka rose: 14°C
Vlažnost: 83%
Pritisak: 1019 hPa
Oblaci: Few Clouds
Vidljivost: 10 km
Cloud details: Few Clouds 1829 m
2024/05/18 06:20 LWSK 180620Z VRB01KT 9999 FEW060 17/14 Q1019 NOSIG
 
LYPG - Podgorica, Crna Gora
Ažurirano: 18/05/2024 08:00
Vedro
Vedro
 Pravac vetra SZ
Vetar: SZ 9 km/h
Temperatura: 21°C
Tačka rose: 12°C
Vlažnost: 57%
Pritisak: 1016 hPa
Pregled: Vedro
Vidljivost: greater than 10 km
2024/05/18 06:00 LYPG 180600Z 32005KT 290V350 CAVOK 21/12 Q1016 NOSIG
LQSA - Sarajevo, Bosna i Hercegovina
Ažurirano: 18/05/2024 08:00
Vedro
Vedro
 Pravac vetra varies
Vetar: varies 2 km/h
Temperatura: 13°C
Tačka rose: 10°C
Vlažnost: 82%
Pritisak: 1017 hPa
Pregled: Vedro
Vidljivost: greater than 10 km
2024/05/18 06:00 LQSA 180600Z VRB01KT CAVOK 13/10 Q1017 NOSIG
LDOS - Osijek, Hrvatksa
Ažurirano: 18/05/2024 08:00
Vedro
Vedro
 Pravac vetra JJZ
Vetar: JJZ 11 km/h
Temperatura: 18°C
Tačka rose: 11°C
Vlažnost: 64%
Pritisak: 1015 hPa
Pregled: Vedro
Vidljivost: greater than 10 km
2024/05/18 06:00 LDOS 180600Z 20006KT CAVOK 18/11 Q1015